Time;durP1;ratioP1;P1;durP2;ratioP2;P2;SDS_P1;SDS_P2;PMS_P1;PMS_P2;Temp;Humidity;BMP_temperature;BMP_pressure;BME280_temperature;BME280_humidity;BME280_pressure;Samples;Min_cycle;Max_cycle;Signal;HPM_P1;HPM_P2
2020/12/24 00:00:37;;;;;;;15.13;3.05;;;10.50;99.90;;;;;;5001822;28;20276;-90
2020/12/24 00:03:02;;;;;;;15.00;3.30;;;10.60;99.90;;;;;;4997112;28;20177;-90
2020/12/24 00:05:28;;;;;;;14.43;2.72;;;10.50;99.90;;;;;;5013134;28;20173;-89
2020/12/24 00:07:54;;;;;;;16.48;3.08;;;10.40;99.90;;;;;;4998708;28;20234;-90
2020/12/24 00:10:20;;;;;;;17.52;3.05;;;10.40;99.90;;;;;;4997888;28;20288;-91
2020/12/24 00:12:45;;;;;;;8.30;2.30;;;10.40;99.90;;;;;;5001964;28;20176;-90
2020/12/24 00:15:11;;;;;;;19.45;3.25;;;10.30;99.90;;;;;;5017551;28;20169;-92
2020/12/24 00:17:37;;;;;;;17.73;2.90;;;10.40;99.90;;;;;;5000104;28;20173;-91
2020/12/24 00:20:04;;;;;;;19.35;3.97;;;10.30;99.90;;;;;;5015703;28;20267;-90
2020/12/24 00:22:30;;;;;;;24.98;2.95;;;10.30;99.90;;;;;;5000000;28;20173;-91
2020/12/24 00:24:56;;;;;;;13.70;2.50;;;10.20;99.90;;;;;;5015354;28;20234;-89
2020/12/24 00:27:21;;;;;;;12.30;2.40;;;10.30;99.90;;;;;;4999838;28;20626;-90
2020/12/24 00:29:48;;;;;;;16.27;2.80;;;10.30;99.90;;;;;;5017187;28;20169;-91
2020/12/24 00:32:13;;;;;;;14.00;2.42;;;10.30;99.90;;;;;;4999220;28;20219;-90
2020/12/24 00:34:39;;;;;;;15.85;2.72;;;10.40;99.90;;;;;;4999475;28;20173;-90
2020/12/24 00:37:05;;;;;;;16.52;3.17;;;10.40;99.90;;;;;;4998993;28;20207;-89
2020/12/24 00:39:31;;;;;;;12.88;2.40;;;10.30;99.90;;;;;;5016841;28;20170;-89
2020/12/24 00:41:57;;;;;;;10.95;2.78;;;10.20;99.90;;;;;;4998658;28;20196;-90
2020/12/24 00:44:23;;;;;;;11.48;2.42;;;10.10;99.90;;;;;;4982740;28;20223;-89
2020/12/24 00:46:49;;;;;;;16.70;3.75;;;10.00;99.90;;;;;;5016523;28;20184;-90
2020/12/24 00:49:16;;;;;;;19.90;3.60;;;9.90;99.90;;;;;;5014506;28;20188;-90
2020/12/24 00:51:41;;;;;;;16.02;3.63;;;9.80;99.90;;;;;;5015052;28;20250;-89
2020/12/24 00:54:08;;;;;;;24.20;2.80;;;9.80;99.90;;;;;;5013441;28;20193;-91
2020/12/24 00:56:35;;;;;;;21.08;3.13;;;9.80;99.90;;;;;;4981412;28;20184;-92
2020/12/24 00:59:00;;;;;;;14.57;3.67;;;9.70;99.90;;;;;;5006243;28;20173;-91
2020/12/24 01:01:26;;;;;;;13.98;3.45;;;9.70;99.90;;;;;;4999126;28;20181;-91
2020/12/24 01:03:51;;;;;;;18.10;4.00;;;9.70;99.90;;;;;;4983561;28;20252;-90
2020/12/24 01:06:17;;;;;;;17.73;4.75;;;9.60;99.90;;;;;;5001327;28;20613;-90
2020/12/24 01:08:43;;;;;;;21.48;4.93;;;9.60;99.90;;;;;;5016409;28;20180;-90
2020/12/24 01:11:08;;;;;;;24.05;6.00;;;9.70;99.90;;;;;;5014885;28;20296;-90
2020/12/24 01:13:34;;;;;;;21.63;6.60;;;9.70;99.90;;;;;;4998394;28;20200;-90
2020/12/24 01:16:00;;;;;;;26.88;6.80;;;9.70;99.90;;;;;;4998324;28;20216;-91
2020/12/24 01:18:25;;;;;;;25.98;7.18;;;9.70;99.90;;;;;;4998037;28;20180;-90
2020/12/24 01:20:51;;;;;;;20.42;6.47;;;9.80;99.90;;;;;;4981768;28;20540;-91
2020/12/24 01:23:16;;;;;;;26.13;7.57;;;9.80;99.90;;;;;;4980614;28;20185;-90
2020/12/24 01:25:42;;;;;;;23.42;6.43;;;9.80;99.90;;;;;;4978604;28;20260;-91
2020/12/24 01:28:08;;;;;;;30.95;6.50;;;9.80;99.90;;;;;;4994881;28;20626;-90
2020/12/24 01:30:33;;;;;;;29.05;6.40;;;9.80;99.90;;;;;;4978310;28;20209;-90
2020/12/24 01:32:59;;;;;;;17.30;5.45;;;9.80;99.90;;;;;;4978528;28;20245;-90
2020/12/24 01:35:24;;;;;;;30.83;4.97;;;9.80;99.90;;;;;;4962338;28;20182;-90
2020/12/24 01:37:50;;;;;;;21.88;4.78;;;9.80;99.90;;;;;;4978393;28;20178;-90
2020/12/24 01:40:16;;;;;;;22.98;4.45;;;9.80;99.90;;;;;;4994590;28;20178;-91
2020/12/24 01:42:42;;;;;;;19.25;3.20;;;9.80;99.90;;;;;;4994281;28;20189;-90
2020/12/24 01:45:08;;;;;;;21.88;3.22;;;9.80;99.90;;;;;;4995762;28;20221;-90
2020/12/24 01:47:34;;;;;;;23.45;3.33;;;9.80;99.90;;;;;;4994742;28;20169;-91
2020/12/24 01:49:59;;;;;;;17.38;2.35;;;9.80;99.90;;;;;;4978326;28;20209;-91
2020/12/24 01:52:31;;;;;;;11.52;2.55;;;9.80;99.90;;;;;;4962447;28;20169;-90
2020/12/24 01:54:58;;;;;;;11.45;2.05;;;9.80;99.90;;;;;;4998043;28;20184;-91
2020/12/24 01:57:23;;;;;;;8.95;2.28;;;9.80;99.90;;;;;;4998485;28;20268;-91
2020/12/24 01:59:49;;;;;;;12.63;2.72;;;9.90;99.90;;;;;;4999685;28;20193;-91
2020/12/24 02:02:14;;;;;;;18.98;3.00;;;9.80;99.90;;;;;;5019933;28;20208;-90
2020/12/24 02:04:40;;;;;;;20.13;3.17;;;9.90;99.90;;;;;;5023771;28;20177;-90
2020/12/24 02:07:06;;;;;;;19.48;4.22;;;10.00;99.90;;;;;;5041800;28;20187;-89
2020/12/24 02:09:33;;;;;;;17.95;4.65;;;9.90;99.90;;;;;;5008746;28;20180;-90
2020/12/24 02:11:59;;;;;;;22.75;4.38;;;9.90;99.90;;;;;;5041924;28;20195;-90
2020/12/24 02:14:25;;;;;;;19.80;5.50;;;9.80;99.90;;;;;;5025201;28;20165;-89
2020/12/24 02:16:50;;;;;;;21.33;5.03;;;9.80;99.90;;;;;;5025117;28;20172;-89
2020/12/24 02:19:16;;;;;;;16.88;4.00;;;9.70;99.90;;;;;;4991767;28;20199;-90
2020/12/24 02:21:41;;;;;;;17.88;4.85;;;9.80;99.90;;;;;;5008747;28;20189;-90
2020/12/24 02:24:08;;;;;;;20.42;4.75;;;9.70;99.90;;;;;;5040766;28;20168;-90
2020/12/24 02:26:33;;;;;;;26.02;5.15;;;9.80;99.90;;;;;;5017876;28;20618;-90
2020/12/24 02:28:59;;;;;;;13.23;4.00;;;9.80;99.90;;;;;;5020872;28;20184;-90
2020/12/24 02:31:25;;;;;;;22.27;4.55;;;9.80;99.90;;;;;;5000683;28;20270;-90
2020/12/24 02:33:51;;;;;;;17.95;3.78;;;9.80;99.90;;;;;;4984000;28;20177;-91
2020/12/24 02:36:17;;;;;;;12.48;3.53;;;9.80;99.90;;;;;;4982908;28;20170;-90
2020/12/24 02:38:43;;;;;;;17.90;3.67;;;9.80;99.90;;;;;;4982484;28;20272;-90
2020/12/24 02:41:08;;;;;;;15.13;3.22;;;9.80;99.90;;;;;;4987577;28;20192;-90
2020/12/24 02:43:34;;;;;;;17.40;2.65;;;9.70;99.90;;;;;;5002031;28;20179;-90
2020/12/24 02:45:59;;;;;;;16.08;2.70;;;9.70;99.90;;;;;;5018597;28;20230;-90
2020/12/24 02:48:25;;;;;;;10.23;2.30;;;9.70;99.90;;;;;;4985216;28;20248;-90
2020/12/24 02:50:51;;;;;;;11.27;1.92;;;9.70;99.90;;;;;;5001511;28;20235;-90
2020/12/24 02:53:16;;;;;;;11.73;2.08;;;9.70;99.90;;;;;;5000708;28;20204;-90
2020/12/24 02:55:42;;;;;;;5.75;1.70;;;9.60;99.90;;;;;;5000358;28;20200;-90
2020/12/24 02:58:07;;;;;;;12.38;1.73;;;9.60;99.90;;;;;;4984577;28;20271;-90
2020/12/24 03:00:33;;;;;;;11.50;1.67;;;9.60;99.90;;;;;;4984489;28;20764;-90
2020/12/24 03:02:59;;;;;;;19.27;2.60;;;9.50;99.90;;;;;;5000488;28;20177;-89
2020/12/24 03:05:24;;;;;;;9.23;1.37;;;9.50;99.90;;;;;;5017433;28;20184;-90
2020/12/24 03:07:51;;;;;;;9.63;2.10;;;9.60;99.90;;;;;;5017261;28;20527;-89
2020/12/24 03:10:17;;;;;;;11.17;1.37;;;9.60;99.90;;;;;;5000923;28;20605;-89
2020/12/24 03:12:43;;;;;;;13.32;2.33;;;9.60;99.90;;;;;;5016931;28;20696;-89
2020/12/24 03:15:11;;;;;;;23.13;1.85;;;9.50;99.90;;;;;;5017244;28;20173;-90
2020/12/24 03:17:37;;;;;;;11.23;2.08;;;9.50;99.90;;;;;;5016664;28;20203;-90
2020/12/24 03:20:03;;;;;;;13.80;2.35;;;9.50;99.90;;;;;;5016026;28;20185;-88
2020/12/24 03:22:28;;;;;;;8.63;2.05;;;9.50;99.90;;;;;;5000340;28;20177;-90
2020/12/24 03:24:54;;;;;;;16.42;2.40;;;9.50;99.90;;;;;;5016781;28;20183;-90
2020/12/24 03:27:20;;;;;;;12.52;2.25;;;9.50;99.90;;;;;;5000333;28;20177;-90
2020/12/24 03:29:45;;;;;;;8.83;1.73;;;9.50;99.90;;;;;;5000207;28;20177;-89
2020/12/24 03:32:11;;;;;;;14.93;2.10;;;9.60;99.90;;;;;;4983786;28;20193;-90
2020/12/24 03:34:36;;;;;;;12.13;1.70;;;9.60;99.90;;;;;;4983856;28;20172;-90
2020/12/24 03:37:02;;;;;;;13.15;2.30;;;9.60;99.90;;;;;;5000045;28;20176;-89
2020/12/24 03:39:28;;;;;;;8.93;2.20;;;9.50;99.90;;;;;;4983823;28;20204;-90
2020/12/24 03:41:53;;;;;;;17.55;2.05;;;9.50;99.90;;;;;;4996705;28;20553;-89
2020/12/24 03:44:19;;;;;;;12.23;1.93;;;9.40;99.90;;;;;;4996574;28;20623;-90
2020/12/24 03:46:45;;;;;;;10.80;1.77;;;9.20;99.90;;;;;;4992744;28;20282;-89
2020/12/24 03:49:11;;;;;;;14.37;2.30;;;9.20;99.90;;;;;;5000010;28;20177;-90
2020/12/24 03:51:37;;;;;;;16.13;2.03;;;9.20;99.90;;;;;;5000288;28;20680;-90
2020/12/24 03:54:02;;;;;;;13.65;2.35;;;9.10;99.90;;;;;;5015699;28;20188;-90
2020/12/24 03:56:28;;;;;;;12.63;1.48;;;9.10;99.90;;;;;;4999662;28;20173;-90
2020/12/24 03:58:54;;;;;;;12.15;2.25;;;9.20;99.90;;;;;;4999734;28;20169;-90
2020/12/24 04:01:19;;;;;;;9.33;1.70;;;9.40;99.90;;;;;;4999418;28;20181;-89
2020/12/24 04:03:45;;;;;;;7.43;1.63;;;9.40;99.90;;;;;;4999315;28;20699;-90
2020/12/24 04:06:11;;;;;;;8.90;1.53;;;9.30;99.90;;;;;;4999412;28;20272;-89
2020/12/24 04:08:36;;;;;;;8.48;1.70;;;9.40;99.90;;;;;;4999583;28;20208;-90
2020/12/24 04:11:02;;;;;;;12.02;1.83;;;9.30;99.90;;;;;;4983193;28;20201;-89
2020/12/24 04:13:27;;;;;;;9.50;1.75;;;9.40;99.90;;;;;;4983014;28;20173;-89
2020/12/24 04:15:53;;;;;;;10.68;2.38;;;9.50;99.90;;;;;;4982918;28;20530;-89
2020/12/24 04:18:19;;;;;;;10.50;1.63;;;9.50;99.90;;;;;;4999048;28;20242;-90
2020/12/24 04:20:45;;;;;;;4.60;1.73;;;9.50;99.90;;;;;;5019807;28;20181;-90
2020/12/24 04:23:10;;;;;;;6.05;1.98;;;9.50;99.90;;;;;;5015354;28;20177;-90
2020/12/24 04:25:36;;;;;;;14.68;2.28;;;9.50;99.90;;;;;;5015634;28;20184;-90
2020/12/24 04:28:01;;;;;;;11.90;2.03;;;9.50;99.90;;;;;;4999718;28;20176;-90
2020/12/24 04:30:27;;;;;;;9.95;1.52;;;9.50;99.90;;;;;;5005718;28;20199;-89
2020/12/24 04:32:53;;;;;;;10.45;1.40;;;9.50;99.90;;;;;;5039149;28;20181;-89
2020/12/24 04:35:19;;;;;;;9.30;1.50;;;9.50;99.90;;;;;;5022224;28;20169;-89
2020/12/24 04:37:44;;;;;;;11.15;1.65;;;9.60;99.90;;;;;;5003727;28;20232;-90
2020/12/24 04:40:10;;;;;;;11.93;1.63;;;9.60;99.90;;;;;;4999315;28;20517;-90
2020/12/24 04:42:36;;;;;;;5.55;1.30;;;9.40;99.90;;;;;;5015041;28;20203;-90
2020/12/24 04:45:02;;;;;;;11.18;1.63;;;9.20;99.90;;;;;;5015351;28;20209;-90
2020/12/24 04:47:29;;;;;;;7.55;1.63;;;9.10;99.90;;;;;;4999159;28;20169;-90
2020/12/24 04:49:58;;;;;;;10.02;1.52;;;9.00;99.90;;;;;;5036561;28;20161;-89
2020/12/24 04:52:24;;;;;;;6.03;1.23;;;9.00;99.90;;;;;;5038382;28;20161;-90
2020/12/24 04:54:49;;;;;;;4.07;1.15;;;9.20;99.90;;;;;;4998098;28;20172;-90
2020/12/24 04:57:15;;;;;;;15.30;2.05;;;9.40;99.90;;;;;;4982307;28;20199;-90
2020/12/24 04:59:43;;;;;;;6.22;1.42;;;9.50;99.90;;;;;;4998221;28;20227;-90
2020/12/24 05:02:09;;;;;;;11.88;1.83;;;9.40;99.90;;;;;;5016029;28;20269;-90
2020/12/24 05:04:34;;;;;;;10.10;1.92;;;9.50;99.90;;;;;;4998502;28;20212;-90
2020/12/24 05:07:07;;;;;;;13.15;1.90;;;9.50;99.90;;;;;;4982750;28;20183;-90
2020/12/24 05:09:34;;;;;;;17.40;2.28;;;9.50;99.90;;;;;;5016127;28;20656;-90
2020/12/24 05:12:00;;;;;;;7.32;1.63;;;9.50;99.90;;;;;;5014863;28;20236;-90
2020/12/24 05:14:28;;;;;;;9.00;1.60;;;9.40;99.90;;;;;;5014366;28;20177;-90
2020/12/24 05:17:00;;;;;;;15.35;1.77;;;9.30;99.90;;;;;;5014445;28;20195;-89
2020/12/24 05:19:27;;;;;;;10.70;1.83;;;9.30;99.90;;;;;;5014304;28;20193;-89
2020/12/24 05:21:53;;;;;;;10.18;1.90;;;9.10;99.90;;;;;;5015427;28;20185;-89
2020/12/24 05:24:26;;;;;;;13.05;1.75;;;9.20;99.90;;;;;;4994985;28;20169;-90
2020/12/24 05:26:53;;;;;;;9.90;1.63;;;9.30;99.90;;;;;;4994600;28;20174;-90
2020/12/24 05:29:19;;;;;;;11.20;1.77;;;9.40;99.90;;;;;;4995876;28;20579;-90
2020/12/24 05:31:52;;;;;;;9.90;1.70;;;9.40;99.90;;;;;;4978701;28;20201;-90
2020/12/24 05:34:19;;;;;;;10.90;1.92;;;9.40;99.90;;;;;;4994296;28;20185;-89
2020/12/24 05:36:45;;;;;;;8.13;1.65;;;9.30;99.90;;;;;;4997605;28;20181;-89
2020/12/24 05:39:11;;;;;;;9.20;1.60;;;9.20;99.90;;;;;;4998163;28;20176;-90
2020/12/24 05:41:38;;;;;;;11.07;1.90;;;9.20;99.90;;;;;;4981586;28;20541;-90
2020/12/24 05:44:05;;;;;;;9.02;1.92;;;9.30;99.90;;;;;;4994451;28;20180;-89
2020/12/24 05:46:49;;;;;;;25.00;2.60;;;9.30;99.90;;;;;;5008226;28;20177;-90
2020/12/24 05:49:17;;;;;;;11.57;1.60;;;9.40;99.90;;;;;;5014280;28;20254;-90
2020/12/24 05:52:09;;;;;;;8.07;1.70;;;9.50;99.90;;;;;;5014416;28;20204;-90
2020/12/24 05:54:35;;;;;;;11.65;1.90;;;9.60;99.90;;;;;;5014583;28;20161;-89
2020/12/24 05:57:01;;;;;;;10.60;1.80;;;9.50;99.90;;;;;;4981480;28;20198;-90
2020/12/24 05:59:29;;;;;;;7.50;1.60;;;9.60;99.90;;;;;;5014196;28;20644;-90
2020/12/24 06:02:05;;;;;;;11.98;1.92;;;9.60;99.90;;;;;;5014076;28;20191;-90
2020/12/24 06:04:43;;;;;;;7.53;1.58;;;9.40;99.90;;;;;;5014006;28;20176;-90
2020/12/24 06:07:10;;;;;;;17.52;2.45;;;9.50;99.90;;;;;;5014379;28;20176;-89
2020/12/24 06:09:37;;;;;;;14.65;2.17;;;9.40;99.90;;;;;;5015232;28;20164;-89
2020/12/24 06:12:24;;;;;;;20.33;3.17;;;9.40;99.90;;;;;;5013747;28;20235;-90
2020/12/24 06:14:55;;;;;;;6.18;1.70;;;9.40;99.90;;;;;;5012423;28;20169;-90
2020/12/24 06:17:22;;;;;;;12.07;2.25;;;9.40;99.90;;;;;;5013835;28;20181;-90
2020/12/24 06:19:49;;;;;;;11.00;2.17;;;9.40;99.90;;;;;;5014014;28;20226;-90
2020/12/24 06:22:19;;;;;;;8.63;2.85;;;9.40;99.90;;;;;;4997524;28;20267;-90
2020/12/24 06:25:01;;;;;;;11.98;2.42;;;9.40;99.90;;;;;;4994250;28;20181;-89
2020/12/24 06:27:42;;;;;;;10.27;2.28;;;9.40;99.90;;;;;;4996068;28;20212;-90
2020/12/24 06:30:13;;;;;;;14.02;2.15;;;9.50;99.90;;;;;;4994524;28;20165;-89
2020/12/24 06:32:45;;;;;;;17.88;3.05;;;9.40;99.90;;;;;;5012995;28;20202;-89
2020/12/24 06:35:11;;;;;;;13.02;2.42;;;9.30;99.90;;;;;;5013660;28;20208;-90
2020/12/24 06:37:41;;;;;;;13.40;2.80;;;9.20;99.90;;;;;;4997039;28;20177;-89
2020/12/24 06:40:08;;;;;;;7.63;2.83;;;9.10;99.90;;;;;;5014643;28;20168;-89
2020/12/24 06:42:37;;;;;;;11.52;3.22;;;9.10;99.90;;;;;;5013137;28;20184;-89
2020/12/24 06:45:08;;;;;;;10.88;3.97;;;9.00;99.90;;;;;;5013400;28;20177;-89
2020/12/24 06:47:34;;;;;;;18.52;4.10;;;9.00;99.90;;;;;;5016622;28;20176;-89
2020/12/24 06:49:59;;;;;;;14.82;4.10;;;9.10;99.90;;;;;;5002769;28;20177;-89
2020/12/24 06:52:30;;;;;;;13.68;6.18;;;9.00;99.90;;;;;;5018319;28;20236;-90
2020/12/24 06:55:13;;;;;;;20.00;8.80;;;9.00;99.90;;;;;;5018554;28;20180;-89
2020/12/24 06:57:44;;;;;;;16.10;8.70;;;9.00;99.90;;;;;;5019506;28;20195;-90
2020/12/24 07:00:23;;;;;;;18.83;8.73;;;8.80;99.90;;;;;;5040474;28;20192;-89
2020/12/24 07:02:51;;;;;;;12.37;8.63;;;8.70;99.90;;;;;;5051745;28;20161;-91
2020/12/24 07:05:41;;;;;;;20.83;8.40;;;8.60;99.90;;;;;;5035127;28;20199;-90
2020/12/24 07:08:46;;;;;;;22.67;9.67;;;8.40;99.90;;;;;;5019796;28;20173;-89
2020/12/24 07:11:32;;;;;;;20.40;10.40;;;8.40;99.90;;;;;;5019729;28;20224;-90
2020/12/24 07:13:57;;;;;;;12.90;10.60;;;8.40;99.90;;;;;;5019055;28;20195;-89
2020/12/24 07:16:46;;;;;;;19.53;12.17;;;8.30;99.90;;;;;;5011902;28;20165;-90
2020/12/24 07:19:15;;;;;;;23.90;14.53;;;8.30;99.90;;;;;;5039662;28;20163;-90
2020/12/24 07:21:53;;;;;;;22.47;16.00;;;8.40;99.90;;;;;;5033647;28;20216;-89
2020/12/24 07:24:29;;;;;;;24.30;16.47;;;8.10;99.90;;;;;;5017732;28;20638;-90
2020/12/24 07:27:03;;;;;;;24.63;17.67;;;8.20;99.90;;;;;;5018493;28;20176;-90
2020/12/24 07:29:31;;;;;;;29.63;18.73;;;8.40;99.90;;;;;;5017235;28;20195;-90
2020/12/24 07:32:01;;;;;;;27.17;20.50;;;8.50;99.90;;;;;;4983798;28;20193;-89
2020/12/24 07:34:32;;;;;;;22.33;19.97;;;8.50;99.90;;;;;;5016902;28;20239;-90
2020/12/24 07:36:58;;;;;;;25.13;19.63;;;8.70;99.90;;;;;;5016316;28;20219;-90
2020/12/24 07:39:24;;;;;;;18.93;15.53;;;8.80;99.90;;;;;;5000234;28;20276;-90
2020/12/24 07:41:50;;;;;;;13.67;12.00;;;8.60;99.90;;;;;;5016838;28;20188;-90
2020/12/24 07:44:18;;;;;;;8.80;5.77;;;8.40;99.90;;;;;;5016607;28;20256;-90
2020/12/24 07:46:45;;;;;;;3.50;3.27;;;8.10;99.90;;;;;;5004767;28;20692;-90
2020/12/24 07:49:11;;;;;;;2.50;2.30;;;7.80;99.90;;;;;;5017725;28;20188;-90
2020/12/24 07:51:36;;;;;;;1.97;1.87;;;7.50;99.90;;;;;;5016129;28;20197;-90
2020/12/24 07:54:09;;;;;;;2.63;2.27;;;7.40;99.90;;;;;;5016459;28;20219;-90
2020/12/24 07:56:35;;;;;;;3.23;3.03;;;7.30;99.90;;;;;;5016222;28;20172;-89
2020/12/24 07:59:03;;;;;;;4.33;3.90;;;7.20;99.90;;;;;;5015002;28;20172;-90
2020/12/24 08:01:29;;;;;;;4.97;4.60;;;7.20;99.90;;;;;;5015693;28;20196;-90
2020/12/24 08:03:59;;;;;;;5.80;5.40;;;7.10;99.90;;;;;;4999745;28;20276;-90
2020/12/24 08:06:26;;;;;;;5.77;5.37;;;7.00;99.90;;;;;;5001314;28;20173;-91
2020/12/24 08:08:53;;;;;;;6.23;5.73;;;6.90;99.90;;;;;;5000876;28;20622;-90
2020/12/24 08:11:21;;;;;;;6.43;5.97;;;6.70;99.90;;;;;;5015578;28;20205;-90
2020/12/24 08:13:46;;;;;;;6.13;5.67;;;6.90;99.90;;;;;;5015815;28;20183;-90
2020/12/24 08:16:13;;;;;;;3.27;3.07;;;7.00;99.90;;;;;;4999694;28;20173;-91
2020/12/24 08:18:48;;;;;;;2.03;1.93;;;7.00;99.90;;;;;;5016844;28;20165;-90
2020/12/24 08:21:30;;;;;;;1.57;1.47;;;6.90;99.90;;;;;;5015710;28;20172;-91
2020/12/24 08:24:00;;;;;;;3.67;1.47;;;6.80;99.90;;;;;;5015789;28;20165;-91
2020/12/24 08:26:26;;;;;;;1.63;1.53;;;6.60;99.90;;;;;;5015723;28;20248;-92
2020/12/24 08:28:56;;;;;;;1.20;1.07;;;6.50;99.90;;;;;;4999105;28;20203;-91
2020/12/24 08:31:27;;;;;;;1.20;1.10;;;6.40;99.90;;;;;;5000048;28;20212;-90
2020/12/24 08:33:54;;;;;;;1.23;1.13;;;6.40;99.90;;;;;;5016424;28;20728;-90
2020/12/24 08:36:21;;;;;;;1.27;1.20;;;6.50;99.90;;;;;;4999665;28;20180;-90
2020/12/24 08:38:48;;;;;;;2.20;1.40;;;6.60;99.90;;;;;;4999354;28;20177;-90
2020/12/24 08:41:21;;;;;;;1.23;1.17;;;6.60;99.90;;;;;;4982179;28;20192;-90
2020/12/24 08:43:54;;;;;;;2.10;1.30;;;6.60;99.90;;;;;;4999124;28;20173;-90
2020/12/24 08:46:21;;;;;;;1.20;1.20;;;6.50;99.90;;;;;;5016434;28;20615;-90
2020/12/24 08:48:47;;;;;;;4.27;1.00;;;6.50;99.90;;;;;;5016523;28;20173;-89
2020/12/24 08:51:17;;;;;;;1.30;1.20;;;6.60;99.90;;;;;;5016188;28;20288;-91
2020/12/24 08:53:43;;;;;;;1.23;1.13;;;6.50;99.90;;;;;;4980370;28;20182;-90
2020/12/24 08:56:17;;;;;;;1.53;1.20;;;6.50;99.90;;;;;;4997630;28;20191;-90
2020/12/24 08:58:53;;;;;;;3.10;1.10;;;6.50;99.90;;;;;;5016914;28;20177;-90
2020/12/24 09:01:20;;;;;;;1.23;1.20;;;6.60;99.90;;;;;;4984052;28;20184;-90
2020/12/24 09:03:47;;;;;;;1.20;0.93;;;6.50;99.90;;;;;;4999686;28;20176;-86
2020/12/24 09:06:14;;;;;;;0.73;0.73;;;6.50;99.90;;;;;;5016598;28;20168;-90
2020/12/24 09:08:40;;;;;;;1.13;0.60;;;6.50;99.90;;;;;;5015345;28;20176;-90
2020/12/24 09:11:25;;;;;;;4.67;0.70;;;6.40;99.90;;;;;;4995882;28;20201;-90
2020/12/24 09:14:05;;;;;;;0.70;0.70;;;6.40;99.90;;;;;;4996247;28;20184;-90
2020/12/24 09:16:32;;;;;;;1.20;0.90;;;6.60;99.90;;;;;;5013485;28;20641;-90
2020/12/24 09:19:05;;;;;;;0.80;0.80;;;6.70;99.90;;;;;;4997101;28;20181;-89
2020/12/24 09:21:31;;;;;;;0.97;0.80;;;6.70;99.90;;;;;;4997837;28;20223;-90
2020/12/24 09:24:10;;;;;;;1.97;1.10;;;6.60;99.90;;;;;;5002545;28;20170;-89
2020/12/24 09:26:46;;;;;;;0.93;0.90;;;6.50;99.90;;;;;;5027370;28;20176;-88
2020/12/24 09:29:12;;;;;;;2.30;1.13;;;6.50;99.90;;;;;;5033004;28;20176;-89
2020/12/24 09:31:38;;;;;;;1.30;1.20;;;6.50;99.90;;;;;;5005573;28;20212;-89
2020/12/24 09:34:04;;;;;;;1.47;1.20;;;6.70;99.90;;;;;;5015008;28;20177;-89
2020/12/24 09:36:30;;;;;;;6.73;1.80;;;6.90;99.90;;;;;;5015733;28;20243;-89
2020/12/24 09:38:56;;;;;;;1.87;1.70;;;6.90;99.90;;;;;;5000277;28;20630;-90
2020/12/24 09:41:21;;;;;;;1.93;1.50;;;7.00;99.90;;;;;;5015914;28;20220;-89
2020/12/24 09:43:47;;;;;;;1.83;1.73;;;7.10;99.90;;;;;;4985087;28;20177;-90
2020/12/24 09:46:14;;;;;;;2.57;1.67;;;7.20;99.90;;;;;;5005354;28;20172;-90
2020/12/24 09:48:40;;;;;;;2.77;1.60;;;7.30;99.90;;;;;;5004479;28;20160;-91
2020/12/24 09:51:05;;;;;;;1.90;1.80;;;7.30;99.90;;;;;;5017757;28;20199;-89
2020/12/24 09:53:31;;;;;;;1.57;1.47;;;7.30;99.90;;;;;;4993713;28;20177;-83
2020/12/24 09:55:57;;;;;;;2.20;1.67;;;7.20;99.90;;;;;;5013810;28;20177;-83
2020/12/24 09:58:22;;;;;;;7.50;2.10;;;7.20;99.90;;;;;;5010835;28;20240;-90
2020/12/24 10:00:48;;;;;;;2.50;1.47;;;7.20;99.90;;;;;;5000615;28;20189;-89
2020/12/24 10:03:14;;;;;;;1.70;1.60;;;7.30;99.90;;;;;;4998471;28;20640;-92
2020/12/24 10:05:40;;;;;;;1.60;1.50;;;7.60;99.90;;;;;;4981040;28;20177;-92
2020/12/24 10:08:05;;;;;;;3.83;1.73;;;7.70;99.90;;;;;;4981776;28;20174;-92
2020/12/24 10:10:31;;;;;;;1.93;1.70;;;7.80;99.90;;;;;;4998178;28;20197;-90
2020/12/24 10:12:57;;;;;;;3.03;1.63;;;7.80;99.90;;;;;;4981301;28;20181;-90
2020/12/24 10:15:22;;;;;;;2.30;1.60;;;7.90;99.90;;;;;;4979634;28;20177;-90
2020/12/24 10:17:48;;;;;;;1.80;1.60;;;8.10;99.90;;;;;;4963426;28;20223;-90
2020/12/24 10:20:14;;;;;;;2.10;2.00;;;8.20;99.90;;;;;;4993038;28;20179;-91
2020/12/24 10:22:39;;;;;;;2.10;1.50;;;8.20;99.90;;;;;;4986305;28;20177;-91
2020/12/24 10:25:05;;;;;;;1.50;1.40;;;8.10;99.90;;;;;;5002898;28;20181;-91
2020/12/24 10:27:30;;;;;;;1.93;1.70;;;8.10;99.90;;;;;;5002727;28;20276;-91
2020/12/24 10:29:56;;;;;;;2.63;1.90;;;8.20;99.90;;;;;;4985230;28;20193;-84
2020/12/24 10:32:22;;;;;;;1.87;1.77;;;8.30;99.90;;;;;;4998698;28;20215;-84
2020/12/24 10:34:48;;;;;;;3.57;2.00;;;8.30;99.90;;;;;;5016954;28;20177;-82
2020/12/24 10:37:14;;;;;;;2.27;2.07;;;8.40;99.90;;;;;;5016189;28;20191;-83
2020/12/24 10:39:40;;;;;;;2.53;2.33;;;8.50;99.90;;;;;;5015922;28;20173;-83
2020/12/24 10:42:06;;;;;;;5.27;2.87;;;8.50;99.90;;;;;;4999484;28;20184;-83
2020/12/24 10:44:32;;;;;;;2.30;2.10;;;8.50;99.90;;;;;;5015504;28;20235;-82
2020/12/24 10:46:58;;;;;;;3.37;1.83;;;8.50;99.90;;;;;;4999143;28;20185;-85
2020/12/24 10:49:25;;;;;;;4.80;1.93;;;8.60;99.90;;;;;;5016779;28;20207;-84
2020/12/24 10:51:51;;;;;;;2.60;1.70;;;8.50;99.90;;;;;;5015181;28;20324;-83
2020/12/24 10:54:17;;;;;;;2.07;1.57;;;8.50;99.90;;;;;;5016455;28;20293;-83
2020/12/24 10:56:49;;;;;;;2.83;1.60;;;8.60;99.90;;;;;;4999585;28;20177;-82
2020/12/24 10:59:16;;;;;;;3.17;1.63;;;8.70;99.90;;;;;;4999503;28;20259;-82
2020/12/24 11:01:46;;;;;;;4.43;1.30;;;8.70;99.90;;;;;;4999259;28;20173;-83
2020/12/24 11:04:11;;;;;;;4.00;1.30;;;8.60;99.90;;;;;;5016708;28;20168;-83
2020/12/24 11:06:37;;;;;;;5.20;1.57;;;8.40;99.90;;;;;;4999331;28;20184;-83
2020/12/24 11:09:03;;;;;;;5.37;1.70;;;8.40;99.90;;;;;;5015480;28;20180;-83
2020/12/24 11:11:34;;;;;;;2.80;1.63;;;8.40;99.90;;;;;;4999466;28;20247;-83
2020/12/24 11:13:59;;;;;;;7.57;1.53;;;8.40;99.90;;;;;;5015259;28;20187;-83
2020/12/24 11:16:25;;;;;;;2.87;1.60;;;8.50;99.90;;;;;;4999040;28;20172;-83
2020/12/24 11:18:51;;;;;;;2.20;1.53;;;8.50;99.90;;;;;;5016625;28;20176;-83
2020/12/24 11:21:18;;;;;;;2.90;1.27;;;8.50;99.90;;;;;;5016265;28;20180;-83
2020/12/24 11:23:45;;;;;;;7.10;1.50;;;8.40;99.90;;;;;;4982451;28;20231;-75
2020/12/24 11:26:10;;;;;;;14.50;2.57;;;8.40;99.90;;;;;;5016278;28;20192;-70
2020/12/24 11:28:36;;;;;;;4.93;1.70;;;8.40;99.90;;;;;;5017161;28;20173;-89
2020/12/24 11:31:02;;;;;;;7.87;1.90;;;8.40;99.90;;;;;;5018681;28;20188;-89
2020/12/24 11:33:28;;;;;;;3.63;1.60;;;8.50;99.90;;;;;;4999781;28;20268;-89
2020/12/24 11:35:53;;;;;;;4.27;1.57;;;8.50;99.90;;;;;;5016664;28;20168;-89
2020/12/24 11:38:19;;;;;;;5.73;1.90;;;8.50;99.90;;;;;;5000302;28;20226;-89
2020/12/24 11:40:45;;;;;;;3.20;1.30;;;8.50;99.90;;;;;;4984212;28;20226;-88
2020/12/24 11:43:10;;;;;;;4.13;1.10;;;8.60;99.90;;;;;;5017500;28;20263;-89
2020/12/24 11:45:36;;;;;;;4.43;1.50;;;8.70;99.90;;;;;;5017571;28;20187;-89
2020/12/24 11:48:01;;;;;;;5.80;1.58;;;8.60;99.90;;;;;;4984314;28;20183;-89
2020/12/24 11:50:27;;;;;;;5.15;1.08;;;8.70;99.90;;;;;;5025821;28;20200;-89
2020/12/24 11:52:53;;;;;;;3.67;0.87;;;8.70;99.90;;;;;;5038544;28;20211;-90
2020/12/24 11:55:19;;;;;;;3.47;0.93;;;8.70;99.90;;;;;;5021301;28;20180;-90
2020/12/24 11:57:44;;;;;;;7.67;0.83;;;8.60;99.90;;;;;;5027234;28;20515;-88
2020/12/24 12:00:10;;;;;;;16.17;1.00;;;8.50;99.90;;;;;;5018202;28;20582;-89
2020/12/24 12:02:38;;;;;;;2.43;0.90;;;8.60;99.90;;;;;;5017022;28;20242;-89
2020/12/24 12:05:07;;;;;;;4.70;1.20;;;8.90;99.90;;;;;;5017005;28;20179;-87
2020/12/24 12:07:33;;;;;;;7.05;1.27;;;9.30;99.90;;;;;;5007829;28;20251;-87
2020/12/24 12:09:59;;;;;;;6.03;1.30;;;9.50;99.90;;;;;;5039191;28;20161;-89
2020/12/24 12:12:25;;;;;;;3.85;0.75;;;9.80;99.90;;;;;;5032767;28;20272;-89
2020/12/24 12:14:53;;;;;;;1.27;0.70;;;10.00;99.90;;;;;;5002277;28;20179;-88
2020/12/24 12:17:22;;;;;;;4.50;1.13;;;10.10;99.90;;;;;;4999712;28;20621;-88
2020/12/24 12:19:47;;;;;;;5.18;0.80;;;10.30;99.90;;;;;;4983430;28;20181;-89
2020/12/24 12:22:16;;;;;;;5.70;0.98;;;10.50;99.90;;;;;;5015520;28;20183;-88
2020/12/24 12:24:41;;;;;;;2.55;0.70;;;10.70;99.90;;;;;;5016647;28;20177;-88
2020/12/24 12:27:07;;;;;;;2.65;0.85;;;10.80;99.90;;;;;;5015452;28;20276;-89
2020/12/24 12:29:34;;;;;;;6.35;1.20;;;10.70;99.90;;;;;;5016185;28;20172;-88
2020/12/24 12:32:00;;;;;;;3.17;0.80;;;10.60;99.90;;;;;;5015606;28;20223;-89
2020/12/24 12:34:26;;;;;;;5.43;1.05;;;10.70;99.90;;;;;;5016510;28;20255;-90
2020/12/24 12:36:53;;;;;;;3.97;1.00;;;10.70;99.90;;;;;;4999648;28;20248;-89
2020/12/24 12:39:19;;;;;;;2.08;1.00;;;10.70;99.90;;;;;;4999819;28;20180;-89
2020/12/24 12:41:46;;;;;;;2.50;1.00;;;10.70;99.90;;;;;;4999236;28;20629;-89
2020/12/24 12:44:11;;;;;;;2.33;0.95;;;10.70;99.90;;;;;;5015175;28;20263;-89
2020/12/24 12:46:41;;;;;;;6.82;1.00;;;10.60;99.90;;;;;;5016796;28;20219;-89
2020/12/24 12:49:07;;;;;;;1.60;0.70;;;10.60;99.90;;;;;;5015534;28;20177;-89
2020/12/24 12:51:34;;;;;;;9.30;1.27;;;10.80;99.90;;;;;;4999294;28;20254;-88